Time;durP1;ratioP1;P1;durP2;ratioP2;P2;SDS_P1;SDS_P2;PMS_P1;PMS_P2;Temp;Humidity;BMP_temperature;BMP_pressure;BME280_temperature;BME280_humidity;BME280_pressure;Samples;Min_cycle;Max_cycle;Signal;HPM_P1;HPM_P2
2022/03/18 00:00:52;;;;;;;24.27;7.90;;;;;;;;;;5012091;28;20305;-76
2022/03/18 00:03:20;;;;;;;20.17;7.60;;;;;;;;;;5015211;28;20741;-77
2022/03/18 00:05:48;;;;;;;21.03;8.80;;;;;;;;;;5016467;28;20234;-77
2022/03/18 00:08:16;;;;;;;21.70;8.47;;;;;;;;;;5018594;28;20204;-76
2022/03/18 00:10:44;;;;;;;22.70;8.20;;;;;;;;;;5015632;28;20688;-76
2022/03/18 00:13:12;;;;;;;24.83;8.07;;;;;;;;;;5014951;28;20850;-79
2022/03/18 00:15:39;;;;;;;25.50;8.30;;;;;;;;;;5014022;28;20208;-76
2022/03/18 00:18:06;;;;;;;20.33;8.33;;;;;;;;;;5013063;28;20470;-75
2022/03/18 00:20:35;;;;;;;24.00;8.33;;;;;;;;;;5014526;28;20578;-79
2022/03/18 00:23:02;;;;;;;19.17;7.50;;;;;;;;;;5011987;28;20251;-77
2022/03/18 00:25:30;;;;;;;21.27;8.43;;;;;;;;;;5016517;28;20733;-78
2022/03/18 00:27:57;;;;;;;20.70;8.30;;;;;;;;;;5013417;28;20205;-76
2022/03/18 00:30:24;;;;;;;16.77;8.13;;;;;;;;;;5014123;28;20200;-76
2022/03/18 00:32:53;;;;;;;20.87;7.90;;;;;;;;;;5013902;28;20246;-77
2022/03/18 00:35:20;;;;;;;20.73;8.63;;;;;;;;;;5016398;28;20989;-78
2022/03/18 00:37:49;;;;;;;21.07;7.87;;;;;;;;;;5017626;28;20688;-77
2022/03/18 00:40:16;;;;;;;18.93;7.77;;;;;;;;;;5018662;28;20206;-79
2022/03/18 00:42:43;;;;;;;21.30;8.53;;;;;;;;;;5021081;28;20262;-78
2022/03/18 00:45:11;;;;;;;23.20;8.37;;;;;;;;;;5016711;28;21842;-79
2022/03/18 00:53:29;;;;;;;19.50;7.70;;;;;;;;;;4937598;28;20293;-76
2022/03/18 00:55:56;;;;;;;23.10;8.07;;;;;;;;;;4995199;28;20915;-80
2022/03/18 00:58:24;;;;;;;21.97;7.60;;;;;;;;;;5019121;28;20461;-76
2022/03/18 01:00:51;;;;;;;18.83;8.57;;;;;;;;;;5013211;28;20294;-77
2022/03/18 01:03:19;;;;;;;20.30;8.83;;;;;;;;;;5016855;28;20232;-76
2022/03/18 01:05:46;;;;;;;19.07;7.73;;;;;;;;;;5014263;28;20204;-76
2022/03/18 01:08:13;;;;;;;17.47;7.80;;;;;;;;;;5015481;28;20291;-79
2022/03/18 01:10:42;;;;;;;24.57;8.27;;;;;;;;;;5015762;28;20304;-76
2022/03/18 01:13:09;;;;;;;21.13;8.00;;;;;;;;;;5014709;28;20287;-79
2022/03/18 01:15:36;;;;;;;19.50;8.10;;;;;;;;;;5010998;28;20207;-77
2022/03/18 01:18:04;;;;;;;17.87;8.17;;;;;;;;;;5016825;28;20565;-77
2022/03/18 01:20:31;;;;;;;18.93;8.33;;;;;;;;;;5011070;28;20777;-77
2022/03/18 01:23:00;;;;;;;18.93;8.23;;;;;;;;;;5018160;28;20306;-75
2022/03/18 01:25:27;;;;;;;18.77;8.00;;;;;;;;;;5012095;28;20486;-78
2022/03/18 01:27:56;;;;;;;26.93;7.67;;;;;;;;;;5013506;28;20462;-77
2022/03/18 01:30:24;;;;;;;20.27;7.73;;;;;;;;;;5011028;28;20557;-77
2022/03/18 01:32:51;;;;;;;18.17;7.40;;;;;;;;;;5013862;28;20467;-77
2022/03/18 01:35:18;;;;;;;17.37;7.40;;;;;;;;;;5016064;28;20481;-77
2022/03/18 01:37:45;;;;;;;23.93;7.40;;;;;;;;;;5021866;28;20470;-77
2022/03/18 01:40:13;;;;;;;21.47;7.73;;;;;;;;;;5018754;28;21180;-78
2022/03/18 01:42:40;;;;;;;17.10;7.30;;;;;;;;;;5017129;28;20253;-77
2022/03/18 01:45:09;;;;;;;22.13;7.70;;;;;;;;;;5013254;28;21037;-77
2022/03/18 01:47:42;;;;;;;21.60;7.77;;;;;;;;;;5012901;28;20554;-76
2022/03/18 01:50:10;;;;;;;17.17;7.20;;;;;;;;;;5016293;28;21275;-76
2022/03/18 01:52:38;;;;;;;22.53;7.60;;;;;;;;;;5017238;28;20469;-76
2022/03/18 01:55:05;;;;;;;18.33;7.30;;;;;;;;;;5016838;28;20306;-76
2022/03/18 01:57:32;;;;;;;19.83;7.53;;;;;;;;;;5016640;28;20252;-76
2022/03/18 02:00:00;;;;;;;19.53;7.43;;;;;;;;;;5015529;28;20521;-77
2022/03/18 02:02:29;;;;;;;18.73;8.00;;;;;;;;;;5013017;28;20204;-77
2022/03/18 02:04:57;;;;;;;20.93;8.23;;;;;;;;;;5015720;28;20479;-76
2022/03/18 02:07:25;;;;;;;18.03;7.67;;;;;;;;;;5024356;28;20215;-76
2022/03/18 02:09:52;;;;;;;23.30;8.40;;;;;;;;;;5026033;28;20203;-77
2022/03/18 02:12:19;;;;;;;25.90;8.60;;;;;;;;;;5022686;28;20231;-76
2022/03/18 02:14:47;;;;;;;26.80;9.20;;;;;;;;;;5026674;28;20528;-77
2022/03/18 02:17:15;;;;;;;23.33;8.67;;;;;;;;;;5026521;28;20504;-79
2022/03/18 02:19:44;;;;;;;26.43;8.73;;;;;;;;;;5024592;28;20208;-78
2022/03/18 02:22:12;;;;;;;25.40;8.30;;;;;;;;;;5024995;28;20462;-77
2022/03/18 02:24:41;;;;;;;18.47;8.00;;;;;;;;;;5026876;28;20482;-76
2022/03/18 02:27:09;;;;;;;20.07;7.77;;;;;;;;;;5022936;28;20471;-77
2022/03/18 02:29:36;;;;;;;22.90;7.50;;;;;;;;;;5026449;28;20529;-77
2022/03/18 02:32:05;;;;;;;23.53;7.83;;;;;;;;;;5019446;28;20457;-76
2022/03/18 02:34:32;;;;;;;21.60;7.77;;;;;;;;;;5021350;28;20478;-76
2022/03/18 02:37:00;;;;;;;16.97;7.90;;;;;;;;;;5016803;28;20463;-77
2022/03/18 02:39:27;;;;;;;18.90;6.90;;;;;;;;;;5023681;28;20525;-77
2022/03/18 02:41:56;;;;;;;16.90;7.10;;;;;;;;;;5027573;28;20490;-76
2022/03/18 02:44:23;;;;;;;21.47;7.03;;;;;;;;;;5025626;28;20569;-77
2022/03/18 02:46:50;;;;;;;20.50;7.07;;;;;;;;;;5023300;28;20562;-77
2022/03/18 02:49:19;;;;;;;18.33;6.30;;;;;;;;;;5027002;28;20481;-78
2022/03/18 02:51:46;;;;;;;18.37;6.93;;;;;;;;;;5021927;28;20463;-76
2022/03/18 02:54:14;;;;;;;24.37;8.10;;;;;;;;;;5022857;28;20478;-77
2022/03/18 02:56:41;;;;;;;20.07;7.07;;;;;;;;;;5025509;28;20517;-78
2022/03/18 02:59:09;;;;;;;21.10;7.67;;;;;;;;;;5018327;28;20495;-77
2022/03/18 03:01:37;;;;;;;18.23;7.20;;;;;;;;;;5020690;28;20964;-77
2022/03/18 03:04:04;;;;;;;18.93;7.10;;;;;;;;;;5018567;28;21158;-78
2022/03/18 03:09:28;;;;;;;19.80;7.00;;;;;;;;;;4960503;28;20504;-79
2022/03/18 03:11:56;;;;;;;17.90;6.77;;;;;;;;;;5011343;28;20570;-77
2022/03/18 03:14:25;;;;;;;22.17;7.20;;;;;;;;;;5025812;28;20992;-78
2022/03/18 03:16:52;;;;;;;18.90;7.07;;;;;;;;;;5022570;28;20610;-76
2022/03/18 03:19:19;;;;;;;15.53;6.67;;;;;;;;;;5024053;28;20505;-77
2022/03/18 03:21:46;;;;;;;21.87;7.23;;;;;;;;;;5024282;28;20502;-78
2022/03/18 03:24:14;;;;;;;21.13;7.47;;;;;;;;;;5024465;28;20577;-78
2022/03/18 03:26:41;;;;;;;18.13;7.33;;;;;;;;;;5024368;28;20472;-77
2022/03/18 03:29:09;;;;;;;19.70;7.10;;;;;;;;;;5024285;28;20509;-77
2022/03/18 03:31:37;;;;;;;23.17;7.20;;;;;;;;;;5030494;28;20244;-76
2022/03/18 03:34:04;;;;;;;21.50;6.90;;;;;;;;;;5028335;28;20621;-78
2022/03/18 03:36:32;;;;;;;19.10;6.93;;;;;;;;;;5030462;28;20471;-76
2022/03/18 03:38:59;;;;;;;21.70;7.73;;;;;;;;;;5037964;28;20475;-76
2022/03/18 03:41:26;;;;;;;18.73;7.13;;;;;;;;;;5036663;28;20442;-76
2022/03/18 03:43:53;;;;;;;15.27;6.80;;;;;;;;;;5041486;28;20498;-75
2022/03/18 03:46:21;;;;;;;18.37;7.20;;;;;;;;;;5037057;28;20469;-77
2022/03/18 03:48:49;;;;;;;17.43;6.77;;;;;;;;;;5040140;28;20496;-77
2022/03/18 03:51:16;;;;;;;17.43;6.77;;;;;;;;;;5037821;28;20709;-76
2022/03/18 03:53:43;;;;;;;16.77;6.30;;;;;;;;;;5037539;28;20279;-78
2022/03/18 03:56:10;;;;;;;18.20;5.90;;;;;;;;;;5040839;28;20477;-77
2022/03/18 03:58:38;;;;;;;17.53;6.17;;;;;;;;;;5040294;28;20462;-78
2022/03/18 04:01:05;;;;;;;21.10;7.20;;;;;;;;;;5035148;28;20502;-77
2022/03/18 04:03:32;;;;;;;21.43;6.53;;;;;;;;;;5022881;28;20578;-77
2022/03/18 04:06:01;;;;;;;28.00;7.27;;;;;;;;;;5025701;28;20489;-78
2022/03/18 04:08:29;;;;;;;17.20;6.83;;;;;;;;;;5025735;28;20880;-77
2022/03/18 04:10:56;;;;;;;24.47;6.93;;;;;;;;;;5024875;28;20459;-76
2022/03/18 04:13:24;;;;;;;15.67;5.87;;;;;;;;;;5028514;28;20573;-77
2022/03/18 04:15:51;;;;;;;23.93;7.00;;;;;;;;;;5022654;28;21019;-78
2022/03/18 04:18:18;;;;;;;20.77;6.43;;;;;;;;;;5023845;28;21016;-78
2022/03/18 04:20:45;;;;;;;17.63;6.20;;;;;;;;;;5025255;28;20462;-78
2022/03/18 04:23:16;;;;;;;15.40;5.77;;;;;;;;;;5027314;28;20521;-79
2022/03/18 04:25:46;;;;;;;21.47;6.33;;;;;;;;;;5019390;28;20490;-78
2022/03/18 04:28:17;;;;;;;22.37;6.73;;;;;;;;;;5020760;28;20541;-77
2022/03/18 04:30:44;;;;;;;15.23;6.07;;;;;;;;;;5020331;28;20780;-76
2022/03/18 04:33:11;;;;;;;15.87;5.50;;;;;;;;;;5014840;28;20466;-79
2022/03/18 04:35:39;;;;;;;17.40;7.20;;;;;;;;;;5015558;28;20823;-78
2022/03/18 04:38:06;;;;;;;18.93;6.70;;;;;;;;;;5015878;28;20577;-78
2022/03/18 04:40:34;;;;;;;25.77;7.20;;;;;;;;;;5014476;28;20482;-75
2022/03/18 04:43:02;;;;;;;16.07;6.30;;;;;;;;;;5018536;28;20467;-76
2022/03/18 04:45:29;;;;;;;18.70;6.30;;;;;;;;;;5017307;28;20921;-77
2022/03/18 04:47:57;;;;;;;19.70;6.93;;;;;;;;;;5021249;28;20490;-76
2022/03/18 04:50:25;;;;;;;14.80;5.77;;;;;;;;;;5016433;28;20466;-75
2022/03/18 04:52:52;;;;;;;16.47;6.77;;;;;;;;;;5015808;28;20857;-77
2022/03/18 04:55:19;;;;;;;15.37;6.40;;;;;;;;;;5019063;28;20961;-75
2022/03/18 04:57:48;;;;;;;27.70;7.20;;;;;;;;;;5015902;28;20524;-75
2022/03/18 05:00:15;;;;;;;17.70;8.03;;;;;;;;;;5014561;28;20553;-75
2022/03/18 05:02:43;;;;;;;23.47;7.73;;;;;;;;;;5013661;28;20458;-75
2022/03/18 05:05:11;;;;;;;20.20;7.47;;;;;;;;;;5016494;28;20944;-76
2022/03/18 05:07:39;;;;;;;18.23;8.00;;;;;;;;;;5016126;28;20512;-77
2022/03/18 05:10:07;;;;;;;20.83;6.60;;;;;;;;;;5012705;28;20470;-75
2022/03/18 05:12:35;;;;;;;28.47;9.33;;;;;;;;;;5014368;28;20479;-76
2022/03/18 05:15:03;;;;;;;41.07;11.33;;;;;;;;;;5015011;28;20566;-78
2022/03/18 05:17:31;;;;;;;36.43;9.77;;;;;;;;;;5013560;28;20947;-76
2022/03/18 05:19:58;;;;;;;34.80;10.00;;;;;;;;;;5013167;28;20561;-78
2022/03/18 05:22:25;;;;;;;34.17;9.00;;;;;;;;;;5018414;28;20539;-76
2022/03/18 05:24:52;;;;;;;18.47;7.23;;;;;;;;;;5018413;28;20478;-75
2022/03/18 05:27:20;;;;;;;19.73;6.87;;;;;;;;;;5011928;28;20495;-76
2022/03/18 05:29:47;;;;;;;19.20;7.37;;;;;;;;;;5012572;28;20490;-77
2022/03/18 05:32:15;;;;;;;22.47;6.60;;;;;;;;;;5013934;28;20467;-76
2022/03/18 05:34:42;;;;;;;22.70;8.00;;;;;;;;;;5015457;28;20482;-79
2022/03/18 05:37:10;;;;;;;24.30;8.13;;;;;;;;;;5018287;28;20566;-82
2022/03/18 05:39:37;;;;;;;18.80;6.93;;;;;;;;;;5012387;28;20465;-80
2022/03/18 05:42:05;;;;;;;34.90;10.00;;;;;;;;;;5011160;28;20569;-78
2022/03/18 05:44:32;;;;;;;36.27;9.03;;;;;;;;;;5009955;28;21032;-78
2022/03/18 05:47:00;;;;;;;38.47;10.20;;;;;;;;;;5015070;28;20471;-77
2022/03/18 05:49:28;;;;;;;27.23;7.50;;;;;;;;;;5016593;28;20490;-76
2022/03/18 05:51:56;;;;;;;31.37;7.73;;;;;;;;;;5019583;28;20520;-78
2022/03/18 05:54:23;;;;;;;34.80;8.93;;;;;;;;;;5012706;28;20855;-78
2022/03/18 05:56:56;;;;;;;29.70;8.37;;;;;;;;;;5009614;28;20565;-80
2022/03/18 05:59:24;;;;;;;26.57;8.17;;;;;;;;;;5016871;28;20466;-78
2022/03/18 06:01:52;;;;;;;26.77;7.53;;;;;;;;;;5026837;28;20493;-79
2022/03/18 06:04:19;;;;;;;23.73;7.03;;;;;;;;;;5026923;28;20509;-78
2022/03/18 06:06:48;;;;;;;19.07;6.63;;;;;;;;;;5023275;28;20573;-77
2022/03/18 06:12:01;;;;;;;25.13;7.83;;;;;;;;;;5028414;28;20600;-77
2022/03/18 06:14:28;;;;;;;34.00;11.90;;;;;;;;;;5026251;28;20566;-78
2022/03/18 06:16:57;;;;;;;35.33;12.40;;;;;;;;;;5022686;28;20455;-78
2022/03/18 06:19:24;;;;;;;30.70;10.53;;;;;;;;;;5027591;28;20462;-77
2022/03/18 06:21:53;;;;;;;29.40;9.17;;;;;;;;;;5023424;28;20458;-77
2022/03/18 06:24:21;;;;;;;32.80;12.73;;;;;;;;;;5022519;28;20251;-77
2022/03/18 06:26:48;;;;;;;40.80;14.83;;;;;;;;;;5028132;28;21023;-77
2022/03/18 06:29:16;;;;;;;27.33;9.63;;;;;;;;;;5015528;28;20493;-76
2022/03/18 06:31:43;;;;;;;24.03;7.93;;;;;;;;;;5014396;28;20491;-76
2022/03/18 06:34:11;;;;;;;25.07;8.07;;;;;;;;;;5011925;28;20483;-77
2022/03/18 06:36:39;;;;;;;24.33;7.33;;;;;;;;;;5017740;28;20200;-77
2022/03/18 06:39:08;;;;;;;18.67;6.03;;;;;;;;;;5015222;28;20477;-77
2022/03/18 06:41:35;;;;;;;16.77;5.93;;;;;;;;;;5020909;28;20639;-78
2022/03/18 06:44:02;;;;;;;17.87;5.97;;;;;;;;;;5015089;28;20318;-76
2022/03/18 06:46:30;;;;;;;14.37;5.70;;;;;;;;;;5011979;28;20231;-77
2022/03/18 06:48:57;;;;;;;19.37;5.40;;;;;;;;;;5017463;28;20203;-76
2022/03/18 06:51:24;;;;;;;19.83;5.77;;;;;;;;;;5016570;28;20291;-77
2022/03/18 06:53:52;;;;;;;22.70;6.70;;;;;;;;;;5014663;28;20315;-79
2022/03/18 06:56:20;;;;;;;17.53;6.60;;;;;;;;;;5022954;28;20236;-78
2022/03/18 06:58:48;;;;;;;18.83;5.63;;;;;;;;;;5022389;28;20709;-78
2022/03/18 07:01:15;;;;;;;12.53;4.70;;;;;;;;;;5019725;28;20741;-77
2022/03/18 07:03:42;;;;;;;18.43;5.30;;;;;;;;;;5017567;28;20229;-77
2022/03/18 07:06:09;;;;;;;16.47;5.53;;;;;;;;;;5015785;28;20228;-77
2022/03/18 07:08:37;;;;;;;17.63;5.30;;;;;;;;;;5021411;28;20214;-77
2022/03/18 07:11:04;;;;;;;11.87;5.43;;;;;;;;;;5019225;28;20208;-75
2022/03/18 07:13:33;;;;;;;14.13;5.27;;;;;;;;;;5013737;28;20705;-77
2022/03/18 07:17:54;;;;;;;12.33;4.67;;;;;;;;;;5019857;28;20200;-76
2022/03/18 07:18:46;;;;;;;13.90;5.40;;;;;;;;;;5019411;28;20211;-76
2022/03/18 07:21:13;;;;;;;21.97;5.80;;;;;;;;;;5018787;28;20231;-77
2022/03/18 07:23:40;;;;;;;11.77;5.27;;;;;;;;;;5016187;28;20650;-76
2022/03/18 07:26:08;;;;;;;12.83;5.33;;;;;;;;;;5019326;28;20219;-76
2022/03/18 07:28:36;;;;;;;18.13;5.67;;;;;;;;;;5018118;28;20290;-78
2022/03/18 07:31:03;;;;;;;12.10;5.67;;;;;;;;;;5016172;28;20210;-77
2022/03/18 07:33:31;;;;;;;16.17;6.00;;;;;;;;;;5015161;28;20722;-77
2022/03/18 07:35:58;;;;;;;23.43;5.47;;;;;;;;;;5018627;28;20309;-78
2022/03/18 07:38:25;;;;;;;12.10;4.67;;;;;;;;;;5014899;28;20719;-77
2022/03/18 07:40:52;;;;;;;10.97;4.30;;;;;;;;;;5023559;28;20268;-77
2022/03/18 07:43:19;;;;;;;13.83;5.00;;;;;;;;;;5022434;28;20611;-77
2022/03/18 07:45:48;;;;;;;21.17;6.73;;;;;;;;;;5020240;28;20925;-78
2022/03/18 07:48:15;;;;;;;16.60;6.13;;;;;;;;;;5024637;28;20258;-77
2022/03/18 07:50:42;;;;;;;24.67;5.90;;;;;;;;;;5023577;28;20254;-77
2022/03/18 07:53:10;;;;;;;17.70;5.97;;;;;;;;;;5021756;28;20336;-76
2022/03/18 07:55:38;;;;;;;20.83;7.17;;;;;;;;;;5020292;28;20204;-76
2022/03/18 07:58:06;;;;;;;15.70;6.27;;;;;;;;;;5023515;28;20251;-77
2022/03/18 08:00:33;;;;;;;18.70;6.20;;;;;;;;;;5026653;28;20238;-77
2022/03/18 08:03:11;;;;;;;9.30;3.57;;;;;;;;;;5023985;28;20246;-77
2022/03/18 08:05:38;;;;;;;14.27;3.70;;;;;;;;;;5025153;28;20762;-78
2022/03/18 08:08:06;;;;;;;8.10;2.63;;;;;;;;;;5021465;28;20928;-76
2022/03/18 08:10:33;;;;;;;7.70;2.27;;;;;;;;;;5016558;28;20579;-76
2022/03/18 08:13:00;;;;;;;5.30;2.03;;;;;;;;;;5015587;28;20208;-76
2022/03/18 08:15:29;;;;;;;6.27;1.57;;;;;;;;;;5018454;28;21333;-76
2022/03/18 08:17:56;;;;;;;4.33;1.23;;;;;;;;;;5020926;28;20737;-77
2022/03/18 08:20:24;;;;;;;5.07;1.57;;;;;;;;;;5017177;28;20303;-78
2022/03/18 08:22:52;;;;;;;4.23;1.27;;;;;;;;;;5016149;28;20206;-77
2022/03/18 08:25:19;;;;;;;9.37;1.53;;;;;;;;;;5015184;28;20228;-76
2022/03/18 08:27:48;;;;;;;9.37;1.47;;;;;;;;;;5017000;28;20231;-76
2022/03/18 08:30:16;;;;;;;5.83;1.10;;;;;;;;;;5018780;28;20638;-76
2022/03/18 08:32:43;;;;;;;5.80;1.30;;;;;;;;;;5017243;28;20231;-77
2022/03/18 08:35:11;;;;;;;4.27;1.27;;;;;;;;;;5020524;28;20266;-78
2022/03/18 08:37:57;;;;;;;3.83;1.20;;;;;;;;;;5010418;28;20291;-77
2022/03/18 08:40:25;;;;;;;5.70;1.30;;;;;;;;;;5015511;28;20215;-76
2022/03/18 08:42:56;;;;;;;5.27;1.20;;;;;;;;;;5015694;28;20211;-77
2022/03/18 08:45:23;;;;;;;2.97;1.10;;;;;;;;;;5014104;28;20268;-78
2022/03/18 08:47:51;;;;;;;5.60;1.10;;;;;;;;;;5017639;28;20216;-75
2022/03/18 08:50:20;;;;;;;5.17;1.20;;;;;;;;;;5018411;28;20286;-75
2022/03/18 08:52:49;;;;;;;4.77;1.10;;;;;;;;;;5014149;28;20800;-76
2022/03/18 08:55:16;;;;;;;3.30;1.10;;;;;;;;;;5016914;28;20228;-74
2022/03/18 08:57:46;;;;;;;4.47;1.00;;;;;;;;;;5011503;28;20207;-75
2022/03/18 09:00:15;;;;;;;3.03;1.13;;;;;;;;;;5019003;28;20293;-78
2022/03/18 09:02:43;;;;;;;7.80;1.23;;;;;;;;;;5014330;28;20670;-75
2022/03/18 09:05:11;;;;;;;2.60;1.03;;;;;;;;;;5019986;28;20231;-75
2022/03/18 09:07:47;;;;;;;4.27;0.80;;;;;;;;;;5019441;28;20226;-76
2022/03/18 09:10:16;;;;;;;5.47;1.10;;;;;;;;;;5013037;28;20200;-75
2022/03/18 09:12:46;;;;;;;4.47;0.93;;;;;;;;;;5012904;28;20235;-77
2022/03/18 09:15:14;;;;;;;3.77;0.80;;;;;;;;;;5013231;28;20662;-77
2022/03/18 09:17:41;;;;;;;3.20;0.90;;;;;;;;;;5015643;28;20280;-78
2022/03/18 09:20:09;;;;;;;3.07;0.70;;;;;;;;;;5015086;28;20205;-78
2022/03/18 09:22:36;;;;;;;3.43;0.80;;;;;;;;;;5016947;28;20228;-74
2022/03/18 09:25:04;;;;;;;4.03;0.97;;;;;;;;;;5015559;28;20275;-76
2022/03/18 09:27:32;;;;;;;3.00;0.97;;;;;;;;;;5013108;28;20271;-77
2022/03/18 09:30:00;;;;;;;5.03;1.07;;;;;;;;;;5017969;28;20231;-74
2022/03/18 09:32:28;;;;;;;2.77;0.80;;;;;;;;;;5025169;28;20199;-76
2022/03/18 09:34:55;;;;;;;2.33;0.60;;;;;;;;;;5027452;28;20716;-77
2022/03/18 09:37:23;;;;;;;5.70;0.60;;;;;;;;;;5030109;28;20271;-76
2022/03/18 09:39:50;;;;;;;3.47;0.70;;;;;;;;;;5032243;28;20668;-77
2022/03/18 09:42:17;;;;;;;2.57;0.50;;;;;;;;;;5026805;28;20295;-77
2022/03/18 09:44:46;;;;;;;1.87;0.70;;;;;;;;;;5040778;28;20242;-76
2022/03/18 09:47:13;;;;;;;1.43;0.60;;;;;;;;;;5026126;28;20231;-78
2022/03/18 09:49:41;;;;;;;1.70;0.60;;;;;;;;;;5017350;28;20208;-76
2022/03/18 09:52:10;;;;;;;1.83;0.80;;;;;;;;;;5014127;28;20394;-76
2022/03/18 09:54:37;;;;;;;3.23;0.70;;;;;;;;;;5014835;28;20225;-74
2022/03/18 09:57:04;;;;;;;4.33;0.63;;;;;;;;;;5016294;28;20295;-77
2022/03/18 09:59:32;;;;;;;3.63;0.87;;;;;;;;;;5016186;28;20221;-76
2022/03/18 10:02:17;;;;;;;4.10;0.70;;;;;;;;;;5010388;28;20241;-76
2022/03/18 10:04:53;;;;;;;2.40;0.63;;;;;;;;;;5012805;28;20318;-76
2022/03/18 10:07:21;;;;;;;4.87;0.67;;;;;;;;;;5009940;28;20228;-78
2022/03/18 10:09:48;;;;;;;4.50;0.70;;;;;;;;;;5015569;28;20713;-76
2022/03/18 10:12:29;;;;;;;4.00;0.60;;;;;;;;;;5015699;28;20694;-76
2022/03/18 10:15:04;;;;;;;2.83;0.70;;;;;;;;;;5018178;28;20220;-77
2022/03/18 10:17:38;;;;;;;3.27;0.80;;;;;;;;;;5017914;28;20210;-75
2022/03/18 10:20:08;;;;;;;3.20;0.80;;;;;;;;;;5025081;28;20207;-75
2022/03/18 10:22:36;;;;;;;4.27;0.60;;;;;;;;;;5017418;28;20283;-78
2022/03/18 10:25:04;;;;;;;2.13;0.70;;;;;;;;;;5018224;28;20223;-78
2022/03/18 10:27:32;;;;;;;4.53;0.80;;;;;;;;;;5018598;28;20224;-78
2022/03/18 10:29:59;;;;;;;2.37;0.83;;;;;;;;;;5025538;28;20204;-77
2022/03/18 10:32:27;;;;;;;3.40;0.90;;;;;;;;;;5021645;28;20250;-76
2022/03/18 10:37:43;;;;;;;3.77;0.77;;;;;;;;;;5026949;22;20239;-77
2022/03/18 10:40:11;;;;;;;3.67;0.80;;;;;;;;;;5013258;28;20239;-77
2022/03/18 10:42:38;;;;;;;2.53;0.90;;;;;;;;;;5007011;28;20672;-77
2022/03/18 10:45:06;;;;;;;2.33;0.70;;;;;;;;;;4997934;28;20241;-77
2022/03/18 10:47:35;;;;;;;4.87;1.00;;;;;;;;;;4996504;28;20672;-76
2022/03/18 10:50:26;;;;;;;4.23;0.90;;;;;;;;;;4998465;28;20299;-77
2022/03/18 10:53:06;;;;;;;7.20;1.07;;;;;;;;;;4997085;28;20201;-77
2022/03/18 10:55:34;;;;;;;3.23;0.87;;;;;;;;;;5001588;28;20212;-78
2022/03/18 10:58:02;;;;;;;3.00;0.83;;;;;;;;;;5001523;28;20270;-78
2022/03/18 11:00:31;;;;;;;3.37;1.00;;;;;;;;;;5004423;28;20236;-78
2022/03/18 11:02:59;;;;;;;3.57;0.87;;;;;;;;;;5014963;28;20232;-77
2022/03/18 11:05:27;;;;;;;3.30;0.60;;;;;;;;;;5002724;28;20552;-76
2022/03/18 11:07:55;;;;;;;2.20;0.70;;;;;;;;;;4996191;28;20311;-77
2022/03/18 11:13:09;;;;;;;2.67;0.70;;;;;;;;;;4995609;28;20204;-77
2022/03/18 11:15:39;;;;;;;5.97;1.00;;;;;;;;;;4988946;28;20649;-76
2022/03/18 11:18:07;;;;;;;3.50;0.70;;;;;;;;;;4997432;28;20220;-76
2022/03/18 11:20:42;;;;;;;2.23;0.83;;;;;;;;;;5000038;28;20211;-75
2022/03/18 11:23:13;;;;;;;1.73;0.70;;;;;;;;;;5000716;28;20682;-76
2022/03/18 11:25:42;;;;;;;2.60;0.57;;;;;;;;;;5009127;28;20205;-78
2022/03/18 11:28:15;;;;;;;2.67;0.80;;;;;;;;;;5006233;28;20220;-78
2022/03/18 11:30:42;;;;;;;3.10;0.90;;;;;;;;;;5009316;28;20224;-77
2022/03/18 11:33:22;;;;;;;2.63;0.50;;;;;;;;;;5005402;28;20209;-78
2022/03/18 11:36:09;;;;;;;2.67;0.97;;;;;;;;;;5002821;28;20278;-77
2022/03/18 11:38:49;;;;;;;3.27;1.27;;;;;;;;;;5000033;28;20299;-77
2022/03/18 11:41:19;;;;;;;7.40;1.70;;;;;;;;;;5008220;28;20273;-77
2022/03/18 11:43:56;;;;;;;3.10;1.00;;;;;;;;;;5000939;28;20227;-77
2022/03/18 11:46:25;;;;;;;1.97;0.67;;;;;;;;;;5000759;28;20216;-76
2022/03/18 11:48:54;;;;;;;3.00;0.80;;;;;;;;;;4999563;28;20220;-77
2022/03/18 11:51:31;;;;;;;5.37;1.17;;;;;;;;;;5000894;28;20276;-77
2022/03/18 11:53:59;;;;;;;4.87;0.77;;;;;;;;;;5003413;28;20228;-77
2022/03/18 11:56:42;;;;;;;2.03;0.60;;;;;;;;;;5004207;28;20286;-77
2022/03/18 11:59:28;;;;;;;3.47;0.77;;;;;;;;;;5000266;28;20664;-78
2022/03/18 12:01:56;;;;;;;2.63;0.63;;;;;;;;;;5003928;28;20584;-77
2022/03/18 12:04:39;;;;;;;4.67;0.67;;;;;;;;;;5008207;28;20229;-77
2022/03/18 12:07:10;;;;;;;3.20;0.60;;;;;;;;;;5003247;28;20678;-76
2022/03/18 12:09:56;;;;;;;2.63;0.70;;;;;;;;;;5002182;28;20271;-77
2022/03/18 12:12:24;;;;;;;1.40;0.60;;;;;;;;;;5000332;28;20210;-78
2022/03/18 12:14:52;;;;;;;1.67;0.60;;;;;;;;;;4999478;28;20263;-77
2022/03/18 12:17:21;;;;;;;2.83;0.60;;;;;;;;;;5002891;28;20200;-78
2022/03/18 12:19:50;;;;;;;4.10;0.57;;;;;;;;;;5005806;28;20319;-77
2022/03/18 12:22:22;;;;;;;1.40;0.43;;;;;;;;;;4999507;28;20205;-77
2022/03/18 12:24:49;;;;;;;3.83;0.77;;;;;;;;;;4998626;28;20863;-77
2022/03/18 12:27:21;;;;;;;1.50;0.40;;;;;;;;;;5003354;28;20221;-78
2022/03/18 12:29:48;;;;;;;3.07;0.53;;;;;;;;;;5000838;28;20296;-77
2022/03/18 12:32:15;;;;;;;1.03;0.53;;;;;;;;;;4997067;28;20725;-78
2022/03/18 12:34:51;;;;;;;1.50;0.50;;;;;;;;;;5002343;28;20224;-77
2022/03/18 12:37:20;;;;;;;1.93;0.50;;;;;;;;;;4998515;28;20205;-76
2022/03/18 12:39:49;;;;;;;1.27;0.40;;;;;;;;;;4998512;28;20304;-77
2022/03/18 12:42:16;;;;;;;2.70;0.50;;;;;;;;;;4998937;28;20205;-78
2022/03/18 12:44:47;;;;;;;1.67;0.40;;;;;;;;;;4996856;28;20780;-77
2022/03/18 12:47:15;;;;;;;2.60;0.60;;;;;;;;;;4995777;28;20229;-77
2022/03/18 12:49:42;;;;;;;2.33;0.70;;;;;;;;;;5000013;28;20208;-77
2022/03/18 12:52:12;;;;;;;2.30;0.50;;;;;;;;;;4999787;28;20697;-77
2022/03/18 12:54:41;;;;;;;1.53;0.30;;;;;;;;;;4999112;28;20717;-77
2022/03/18 12:57:09;;;;;;;5.43;0.40;;;;;;;;;;4995041;28;20208;-77
2022/03/18 12:59:38;;;;;;;0.97;0.40;;;;;;;;;;4996460;28;20204;-77
2022/03/18 13:02:06;;;;;;;1.77;0.60;;;;;;;;;;4997449;28;20651;-77
2022/03/18 13:04:34;;;;;;;2.03;0.50;;;;;;;;;;5001635;28;20227;-77
2022/03/18 13:07:02;;;;;;;3.33;0.40;;;;;;;;;;5001685;28;20251;-77
2022/03/18 13:09:31;;;;;;;2.07;0.40;;;;;;;;;;5001189;28;20208;-77
2022/03/18 13:12:01;;;;;;;3.00;0.50;;;;;;;;;;4994589;28;20200;-77
2022/03/18 13:14:35;;;;;;;1.77;0.60;;;;;;;;;;4994720;28;21702;-77
2022/03/18 13:17:03;;;;;;;1.43;0.50;;;;;;;;;;4996308;28;20204;-77
2022/03/18 13:19:40;;;;;;;0.80;0.30;;;;;;;;;;4999443;28;20204;-76
2022/03/18 13:22:07;;;;;;;1.83;0.40;;;;;;;;;;5001066;28;20232;-77
2022/03/18 13:24:36;;;;;;;0.87;0.50;;;;;;;;;;4994865;28;20227;-76
2022/03/18 13:27:03;;;;;;;0.97;0.40;;;;;;;;;;5002548;28;20269;-78
2022/03/18 13:35:10;;;;;;;1.40;0.50;;;;;;;;;;5005149;28;20271;-77
2022/03/18 13:37:37;;;;;;;4.27;0.83;;;;;;;;;;5013297;28;20235;-77
2022/03/18 13:40:14;;;;;;;3.60;0.47;;;;;;;;;;5016410;28;20244;-78
2022/03/18 13:43:06;;;;;;;2.53;0.50;;;;;;;;;;5005788;28;20227;-78
2022/03/18 13:45:33;;;;;;;5.77;0.50;;;;;;;;;;5016280;28;20220;-77
2022/03/18 13:48:00;;;;;;;3.63;0.60;;;;;;;;;;5017107;28;20239;-78
2022/03/18 13:50:43;;;;;;;0.67;0.40;;;;;;;;;;5016515;28;20194;-78
2022/03/18 13:53:19;;;;;;;2.07;0.47;;;;;;;;;;5014030;28;20204;-78
2022/03/18 13:55:47;;;;;;;2.50;0.60;;;;;;;;;;5016219;28;20203;-77
2022/03/18 13:58:25;;;;;;;7.23;0.93;;;;;;;;;;5013332;28;20213;-78
2022/03/18 14:00:52;;;;;;;1.23;0.53;;;;;;;;;;5005555;28;20630;-78
2022/03/18 14:03:19;;;;;;;2.23;0.53;;;;;;;;;;4994891;28;20586;-76
2022/03/18 14:05:46;;;;;;;1.00;0.37;;;;;;;;;;4993106;28;20211;-77
2022/03/18 14:08:27;;;;;;;1.80;0.47;;;;;;;;;;4994648;28;20231;-77
2022/03/18 14:10:59;;;;;;;1.03;0.57;;;;;;;;;;4993569;28;20295;-77
2022/03/18 14:13:27;;;;;;;4.93;0.73;;;;;;;;;;4998576;28;20258;-77
2022/03/18 14:15:54;;;;;;;4.13;0.50;;;;;;;;;;4991357;28;20845;-76
2022/03/18 14:18:22;;;;;;;4.20;0.60;;;;;;;;;;4994533;28;20583;-77
2022/03/18 14:20:59;;;;;;;1.57;0.70;;;;;;;;;;5000625;28;20215;-77
2022/03/18 14:23:28;;;;;;;3.87;0.47;;;;;;;;;;4997760;28;20227;-77
2022/03/18 14:25:58;;;;;;;2.10;0.60;;;;;;;;;;4996533;28;20303;-77
2022/03/18 14:28:26;;;;;;;2.00;0.50;;;;;;;;;;5000787;28;20244;-77
2022/03/18 14:30:53;;;;;;;2.40;0.50;;;;;;;;;;5007267;28;20233;-77
2022/03/18 14:33:21;;;;;;;3.90;0.83;;;;;;;;;;5007817;28;20288;-76
2022/03/18 14:35:49;;;;;;;3.80;0.67;;;;;;;;;;4996374;28;20663;-76
2022/03/18 14:38:17;;;;;;;2.27;0.60;;;;;;;;;;5001083;28;20209;-77
2022/03/18 14:40:44;;;;;;;2.00;0.50;;;;;;;;;;4999442;28;20201;-77
2022/03/18 14:43:12;;;;;;;1.00;0.60;;;;;;;;;;4997053;28;20734;-77
2022/03/18 14:45:40;;;;;;;2.00;0.60;;;;;;;;;;4995287;28;20219;-75
2022/03/18 14:48:07;;;;;;;5.23;0.80;;;;;;;;;;5002291;28;20322;-78
2022/03/18 14:50:38;;;;;;;2.03;0.40;;;;;;;;;;5003810;28;20204;-77
2022/03/18 14:53:06;;;;;;;3.00;0.67;;;;;;;;;;5005805;28;20212;-76
2022/03/18 14:58:19;;;;;;;4.30;0.50;;;;;;;;;;5004746;28;20972;-80
2022/03/18 15:00:47;;;;;;;1.90;0.70;;;;;;;;;;4998413;28;20197;-80
2022/03/18 15:03:14;;;;;;;1.73;0.70;;;;;;;;;;5004144;28;20667;-77
2022/03/18 15:05:41;;;;;;;1.97;0.70;;;;;;;;;;4998598;28;20213;-77
2022/03/18 15:08:08;;;;;;;4.33;0.80;;;;;;;;;;5001344;28;20225;-79
2022/03/18 15:10:36;;;;;;;1.57;0.70;;;;;;;;;;4997362;28;20213;-78